21:24
Airports
Links
Donate
Help keep this website running!
PayPal
Bitcoin
METAR
RJAA 212100Z 02014G24KT 4000 SHRA BR FEW003 SCT004 BKN005 19/19 Q1009 TEMPO 3000 SHRA BR RMK 2ST003 3ST004 5ST005 A2982
Current Weather Conditions at RJAA
IFR 21:00:00 21-10-17
Altimeter:29.79 hg
Temp:19.0°c 66°f
Dew point:19.0°c 66°f
Wind:14 knots, 16.1 mph, 7 m/s, from 20°
Visibility:2.49 statute miles
500(BKN) Broken
400(SCT) Scattered
300(FEW) A few
Past METAR reports
LIFR 20:39:00 21-10-17
Altimeter:29.82 hg
Temp:19.0°c 66°f
Dew point:19.0°c 66°f
Wind:16 knots, 18.4 mph, 8 m/s, from 30°
Visibility:4.35 statute miles
400(BKN) Broken
300(SCT) Scattered
200(FEW) A few
RJAA 212039Z 03016KT 7000 -SHRA FEW002 SCT003 BKN004 19/19 Q1010 RMK 1ST002 4ST003 5ST004 A2983
LIFR 20:30:00 21-10-17
Altimeter:29.79 hg
Temp:19.0°c 66°f
Dew point:19.0°c 66°f
Wind:18 knots, 20.7 mph, 9 m/s, from 20°
Visibility:3.11 statute miles
400(BKN) Broken
300(SCT) Scattered
200(FEW) A few
RJAA 212030Z 02018KT 5000 SHRA BR FEW002 SCT003 BKN004 19/19 Q1009 TEMPO 3000 SHRA BR
LIFR 20:20:00 21-10-17
Altimeter:29.82 hg
Temp:19.0°c 66°f
Dew point:19.0°c 66°f
Wind:18 knots, 20.7 mph, 9 m/s, from 20°
Visibility:1.86 statute miles
400(BKN) Broken
300(SCT) Scattered
200(FEW) A few
RJAA 212020Z 02018KT 3000 SHRA BR FEW002 SCT003 BKN004 19/19 Q1010 RMK 1ST002 4ST003 6ST004 A2983
LIFR 20:16:00 21-10-17
Altimeter:29.82 hg
Temp:19.0°c 66°f
Dew point:19.0°c 66°f
Wind:16 knots, 18.4 mph, 8 m/s, from 30°
Visibility:2.8 statute miles
400(BKN) Broken
300(SCT) Scattered
200(FEW) A few
RJAA 212016Z 03016KT 4500 SHRA BR FEW002 SCT003 BKN004 19/19 Q1010 RMK 1ST002 4ST003 6ST004 A2984
LIFR 20:00:00 21-10-17
Altimeter:29.82 hg
Temp:20.0°c 68°f
Dew point:19.0°c 66°f
Wind:15 knots, 17.3 mph, 8 m/s, from 30°
Visibility:6.21 statute miles
400(BKN) Broken
300(SCT) Scattered
200(FEW) A few
RJAA 212000Z 03015KT 9999 -RA FEW002 SCT003 BKN004 20/19 Q1010 TEMPO 4000 RA BR RMK 1ST002 3ST003 6ST004 A2985
LIFR 19:30:00 21-10-17
Altimeter:29.82 hg
Temp:19.0°c 66°f
Dew point:19.0°c 66°f
Wind:13 knots, 15 mph, 7 m/s, from 30°
Visibility:6.21 statute miles
400(BKN) Broken
300(SCT) Scattered
200(FEW) A few
RJAA 211930Z 03013KT 9999 -RA FEW002 SCT003 BKN004 19/19 Q1010 TEMPO 4000 RA BR
TAF
TAF RJAA 211713Z 2118/2300 04014KT 4000 -RA BR FEW003 BKN005 TEMPO 2120/2206 2000 RA BR BECMG 2204/2206 16012KT FEW005 BKN008 TEMPO 2206/2209 2000 SHRA BR FEW003 BKN005 BECMG 2212/2215 14024G35KT 6000 -SHRA
Forecast at RJAA
18:00 21-10-17 to 04:00 22-10-17
-RA BR
Wind:14 Knots from 40°
Visibility:2.49 statute miles
300FEW A few
500BKN Broken
TEMPO 20:00 21-10-17 to 06:00 22-10-17
RA BR
Visibility:1.24 statute miles
BECMG 04:00 22-10-17 to 12:00 22-10-17
-RA BR
Wind:12 Knots from 160°
Visibility:2.49 statute miles
500FEW A few
800BKN Broken
TEMPO 06:00 22-10-17 to 09:00 22-10-17
SHRA BR
Visibility:1.24 statute miles
300FEW A few
500BKN Broken
BECMG 12:00 22-10-17 to 00:00 23-10-17
-SHRA
Wind:24 Knots from 140°
Visibility:3.73 statute miles
500FEW A few
800BKN Broken